Terminal Aerodrome Forecast
Issued by NWS Wilmington, OH

Current Version | Previous Version | Graphics & Text | Print | Product List | Glossary On
Versions: 1 2 3 4 5 6 7 8 9 10 11 12 13 14 15 16 17 18 19
787
FTUS41 KILN 022320
TAFCMH
TAF
KCMH 022320Z 0300/0324 14012G20KT P6SM VCTS OVC060CB WS020/19055KT
      TEMPO 0300/0304 5SM -SHRA OVC035
     FM030400 15016G26KT 4SM -SHRA BR VCTS OVC035CB WS020/19060KT
      TEMPO 0305/0308 2SM -SHRA OVC025
     FM031100 17016G26KT 5SM -SHRA BR VCSH OVC015
     FM031300 22014G24KT P6SM BKN025
     FM031700 24018G30KT P6SM BKN035=

USA.gov is the U.S. government's official web portal to all federal, state and local government web resources and services.